createdAt,value
2023-03-01T00:01:22.672Z,27.40
2023-03-01T00:03:54.257Z,29.57
2023-03-01T00:06:26.908Z,24.37
2023-03-01T00:08:57.396Z,27.77
2023-03-01T00:11:30.601Z,25.10
2023-03-01T00:14:02.920Z,25.63
2023-03-01T00:16:39.800Z,26.07
2023-03-01T00:19:13.747Z,30.13
2023-03-01T00:21:44.569Z,31.93
2023-03-01T00:24:15.104Z,30.63
2023-03-01T00:26:47.599Z,25.47
2023-03-01T00:29:20.924Z,28.67
2023-03-01T00:31:53.664Z,30.77
2023-03-01T00:34:24.249Z,30.97
2023-03-01T00:36:54.890Z,28.93
2023-03-01T00:39:27.022Z,25.73
2023-03-01T00:42:01.097Z,22.77
2023-03-01T00:44:33.942Z,24.90
2023-03-01T00:47:04.427Z,27.63
2023-03-01T00:49:34.853Z,24.63
2023-03-01T00:52:05.477Z,27.10
2023-03-01T00:54:36.056Z,27.03
2023-03-01T00:57:06.521Z,26.97
2023-03-01T00:59:37.115Z,30.17
2023-03-01T01:02:09.146Z,27.93
2023-03-01T01:04:39.831Z,25.07
2023-03-01T01:07:11.922Z,28.40
2023-03-01T01:09:43.264Z,27.73
2023-03-01T01:12:14.896Z,28.10
2023-03-01T01:14:47.234Z,27.80
2023-03-01T01:17:17.734Z,27.77
2023-03-01T01:19:48.326Z,26.40
2023-03-01T01:22:19.022Z,28.50
2023-03-01T01:24:50.466Z,25.80
2023-03-01T01:27:21.537Z,28.17
2023-03-01T01:29:52.531Z,27.43
2023-03-01T01:32:23.440Z,26.27
2023-03-01T01:34:56.237Z,26.00
2023-03-01T01:37:28.434Z,26.77
2023-03-01T01:40:00.697Z,28.20
2023-03-01T01:42:31.323Z,26.67
2023-03-01T01:45:31.089Z,25.37
2023-03-01T01:48:04.641Z,27.73
2023-03-01T01:50:40.729Z,24.83
2023-03-01T01:53:14.214Z,26.83
2023-03-01T01:55:50.649Z,28.47
2023-03-01T01:58:23.342Z,27.20
2023-03-01T02:00:54.640Z,30.40
2023-03-01T02:03:30.045Z,30.63
2023-03-01T02:06:08.995Z,27.57
2023-03-01T02:08:42.381Z,28.60
2023-03-01T02:11:16.921Z,23.30
2023-03-01T02:13:49.103Z,26.47
2023-03-01T02:16:20.258Z,25.27
2023-03-01T02:18:52.359Z,26.57
2023-03-01T02:21:37.935Z,29.57
2023-03-01T02:24:11.621Z,25.67
2023-03-01T02:26:51.089Z,33.47
2023-03-01T02:29:22.137Z,29.07
2023-03-01T02:31:59.717Z,26.83
2023-03-01T02:34:32.004Z,24.83
2023-03-01T02:37:08.593Z,24.73
2023-03-01T02:39:43.118Z,29.47
2023-03-01T02:42:17.120Z,28.40
2023-03-01T02:44:47.706Z,28.80
2023-03-01T02:47:18.301Z,30.80
2023-03-01T02:49:48.802Z,25.03
2023-03-01T02:52:52.980Z,26.17
2023-03-01T02:55:24.896Z,25.13
2023-03-01T02:57:58.605Z,24.50
2023-03-01T03:00:32.162Z,28.10
2023-03-01T03:03:02.778Z,30.27
2023-03-01T03:05:34.195Z,27.83
2023-03-01T03:08:05.707Z,25.30
2023-03-01T03:10:38.777Z,25.80
2023-03-01T03:13:13.504Z,28.60
2023-03-01T03:15:45.382Z,26.03
2023-03-01T03:18:17.947Z,24.83
2023-03-01T03:20:48.883Z,24.20
2023-03-01T03:23:19.534Z,27.30
2023-03-01T03:25:53.280Z,24.43
2023-03-01T03:28:23.947Z,25.10
2023-03-01T03:30:54.701Z,26.53
2023-03-01T03:33:25.068Z,27.37
2023-03-01T03:35:55.635Z,25.00
2023-03-01T03:38:26.741Z,24.77
2023-03-01T03:41:03.362Z,29.27
2023-03-01T03:43:36.899Z,30.70
2023-03-01T03:46:08.344Z,25.60
2023-03-01T03:48:42.261Z,25.13
2023-03-01T03:51:15.658Z,26.60
2023-03-01T03:53:47.220Z,26.00
2023-03-01T03:56:17.732Z,26.03
2023-03-01T03:58:48.499Z,25.80
2023-03-01T04:01:19.172Z,26.47
2023-03-01T04:03:49.952Z,25.30
2023-03-01T04:06:20.506Z,24.63
2023-03-01T04:08:54.345Z,25.93
2023-03-01T04:11:27.794Z,26.80
2023-03-01T04:14:01.084Z,25.80
2023-03-01T04:16:32.175Z,23.20
2023-03-01T04:19:03.759Z,24.53
2023-03-01T04:21:34.285Z,24.60
2023-03-01T04:24:07.723Z,23.00
2023-03-01T04:26:38.179Z,27.27
2023-03-01T04:29:08.749Z,28.47
2023-03-01T04:31:39.443Z,28.67
2023-03-01T04:34:10.086Z,28.70
2023-03-01T04:36:40.991Z,26.30
2023-03-01T04:39:13.648Z,27.80
2023-03-01T04:41:47.368Z,23.97
2023-03-01T04:44:20.293Z,26.53
2023-03-01T04:46:51.889Z,27.50
2023-03-01T04:49:22.583Z,27.80
2023-03-01T04:51:53.136Z,27.93
2023-03-01T04:54:23.594Z,25.73
2023-03-01T04:56:55.515Z,24.67
2023-03-01T04:59:25.985Z,23.53
2023-03-01T05:01:58.387Z,28.37
2023-03-01T05:04:31.436Z,26.50
2023-03-01T05:07:01.982Z,25.63
2023-03-01T05:09:32.337Z,27.33
2023-03-01T05:12:03.404Z,23.23
2023-03-01T05:14:34.618Z,23.20
2023-03-01T05:17:05.230Z,27.27
2023-03-01T05:19:36.683Z,22.13
2023-03-01T05:22:07.461Z,25.77
2023-03-01T05:24:40.701Z,23.80
2023-03-01T05:27:11.226Z,25.73
2023-03-01T05:29:41.862Z,25.27
2023-03-01T05:32:14.607Z,25.20
2023-03-01T05:34:46.811Z,26.27
2023-03-01T05:37:17.667Z,24.63
2023-03-01T05:39:50.963Z,23.20
2023-03-01T05:42:22.013Z,24.40
2023-03-01T05:44:52.626Z,26.07
2023-03-01T05:47:26.376Z,29.30
2023-03-01T05:49:57.446Z,22.70
2023-03-01T05:52:28.038Z,24.30
2023-03-01T05:55:00.750Z,26.90
2023-03-01T05:57:31.824Z,26.20
2023-03-01T06:00:02.493Z,29.07
2023-03-01T06:02:33.293Z,23.67
2023-03-01T06:05:03.841Z,23.93
2023-03-01T06:07:37.471Z,26.47
2023-03-01T06:10:09.530Z,27.07
2023-03-01T06:12:41.181Z,25.70
2023-03-01T06:15:15.738Z,26.97
2023-03-01T06:17:48.494Z,24.90
2023-03-01T06:20:22.022Z,32.07
2023-03-01T06:22:52.593Z,29.37
2023-03-01T06:25:25.250Z,27.43
2023-03-01T06:27:59.515Z,25.77
2023-03-01T06:30:30.937Z,30.20
2023-03-01T06:33:03.672Z,33.70
2023-03-01T06:35:34.538Z,28.67
2023-03-01T06:38:06.395Z,31.97
2023-03-01T06:40:37.038Z,31.33
2023-03-01T06:43:08.452Z,34.30
2023-03-01T06:45:39.589Z,29.07
2023-03-01T06:48:12.221Z,28.00
2023-03-01T06:50:44.506Z,29.30
2023-03-01T06:53:15.173Z,29.17
2023-03-01T06:55:47.238Z,29.73
2023-03-01T06:58:17.961Z,29.37
2023-03-01T07:00:51.302Z,30.83
2023-03-01T07:03:23.993Z,27.87
2023-03-01T07:05:55.476Z,23.97
2023-03-01T07:08:26.046Z,27.20
2023-03-01T07:11:00.490Z,23.40
2023-03-01T07:13:32.450Z,25.90
2023-03-01T07:16:04.493Z,26.77
2023-03-01T07:18:35.170Z,27.40
2023-03-01T07:21:14.698Z,28.03
2023-03-01T07:23:45.641Z,28.83
2023-03-01T07:26:16.206Z,24.73
2023-03-01T07:28:47.792Z,26.17
2023-03-01T07:31:18.352Z,25.37
2023-03-01T07:33:48.803Z,21.07
2023-03-01T07:36:19.213Z,24.83
2023-03-01T07:38:50.769Z,24.77
2023-03-01T07:41:21.331Z,23.60
2023-03-01T07:43:53.478Z,23.07
2023-03-01T07:46:27.759Z,24.43
2023-03-01T07:48:59.428Z,23.20
2023-03-01T07:51:29.930Z,18.77
2023-03-01T07:54:00.580Z,20.87
2023-03-01T07:56:31.513Z,19.57
2023-03-01T07:59:02.395Z,21.40
2023-03-01T08:01:33.048Z,23.30
2023-03-01T08:04:03.620Z,21.00
2023-03-01T08:06:36.557Z,20.03
2023-03-01T08:09:07.544Z,18.53
2023-03-01T08:11:38.838Z,13.57
2023-03-01T08:14:09.569Z,15.33
2023-03-01T08:16:51.063Z,17.93
2023-03-01T08:19:21.687Z,14.80
2023-03-01T08:21:52.552Z,20.20
2023-03-01T08:24:24.962Z,14.87
2023-03-01T08:26:56.056Z,14.37
2023-03-01T08:29:29.445Z,17.60
2023-03-01T08:32:00.290Z,15.87
2023-03-01T08:34:32.332Z,16.70
2023-03-01T08:37:03.050Z,12.30
2023-03-01T08:39:33.623Z,13.03
2023-03-01T08:42:05.618Z,9.40
2023-03-01T08:44:36.176Z,12.78
2023-03-01T08:47:06.887Z,12.67
2023-03-01T08:49:37.646Z,12.33
2023-03-01T08:52:08.349Z,11.05
2023-03-01T08:54:38.941Z,10.98
2023-03-01T08:57:11.123Z,17.23
2023-03-01T08:59:42.448Z,16.20
2023-03-01T09:02:16.354Z,21.13
2023-03-01T09:04:47.062Z,21.10
2023-03-01T09:07:19.308Z,13.32
2023-03-01T09:09:49.810Z,12.95
2023-03-01T09:12:20.856Z,10.53
2023-03-01T09:14:51.249Z,10.35
2023-03-01T09:17:23.330Z,15.13
2023-03-01T09:19:55.582Z,13.80
2023-03-01T09:22:26.332Z,10.80
2023-03-01T09:24:57.500Z,8.98
2023-03-01T09:27:28.008Z,10.00
2023-03-01T09:29:58.984Z,10.90
2023-03-01T09:32:32.979Z,10.20
2023-03-01T09:35:06.297Z,12.30
2023-03-01T09:37:38.792Z,8.88
2023-03-01T09:40:19.411Z,9.30
2023-03-01T09:42:58.812Z,8.20
2023-03-01T09:45:32.465Z,11.65
2023-03-01T09:48:05.221Z,9.18
2023-03-01T09:50:43.604Z,11.27
2023-03-01T09:53:23.191Z,10.00
2023-03-01T09:56:06.768Z,10.80
2023-03-01T09:58:55.756Z,8.65
2023-03-01T10:01:36.110Z,10.72
2023-03-01T10:04:29.704Z,16.02
2023-03-01T10:07:19.041Z,11.43
2023-03-01T10:09:50.067Z,9.98
2023-03-01T10:12:24.328Z,12.43
2023-03-01T10:15:03.963Z,13.20
2023-03-01T10:17:40.519Z,8.13
2023-03-01T10:20:23.620Z,8.65
2023-03-01T10:22:56.339Z,6.37
2023-03-01T10:25:43.562Z,8.00
2023-03-01T10:28:23.149Z,7.25
2023-03-01T10:30:54.733Z,10.03
2023-03-01T10:33:31.153Z,8.13
2023-03-01T10:36:03.634Z,7.62
2023-03-01T10:38:53.341Z,9.45
2023-03-01T10:41:25.818Z,7.97
2023-03-01T10:44:03.262Z,7.35
2023-03-01T10:46:38.708Z,6.25
2023-03-01T10:49:18.667Z,5.97
2023-03-01T10:51:51.990Z,5.28
2023-03-01T10:54:32.076Z,5.50
2023-03-01T10:57:07.063Z,6.87
2023-03-01T10:59:40.014Z,6.72
2023-03-01T11:02:31.473Z,5.83
2023-03-01T11:05:04.754Z,5.90
2023-03-01T11:07:38.822Z,5.80
2023-03-01T11:10:13.928Z,4.58
2023-03-01T11:12:44.597Z,5.10
2023-03-01T11:15:31.289Z,5.15
2023-03-01T11:18:13.539Z,8.33
2023-03-01T11:20:39.217Z,5.00
2023-03-01T11:23:15.393Z,5.62
2023-03-01T11:25:50.568Z,5.40
2023-03-01T11:28:24.306Z,5.30
2023-03-01T11:31:12.070Z,7.12
2023-03-01T11:33:45.854Z,5.22
2023-03-01T11:36:31.276Z,4.95
2023-03-01T11:39:28.776Z,6.80
2023-03-01T11:42:18.101Z,13.50
2023-03-01T11:44:39.800Z,6.28
2023-03-01T11:47:30.177Z,6.45
2023-03-01T11:50:24.505Z,9.13
2023-03-01T11:53:06.327Z,6.60
2023-03-01T11:56:02.314Z,5.67
2023-03-01T11:58:41.927Z,4.97
2023-03-01T12:01:42.687Z,4.40
2023-03-01T12:04:29.575Z,6.33
2023-03-01T12:07:09.932Z,5.03
2023-03-01T12:09:46.275Z,4.95
2023-03-01T12:12:48.573Z,6.08
2023-03-01T12:15:55.388Z,4.30
2023-03-01T12:18:34.991Z,5.22
2023-03-01T12:21:15.720Z,7.42
2023-03-01T12:24:04.851Z,6.75
2023-03-01T12:26:38.638Z,7.28
2023-03-01T12:29:28.970Z,5.67
2023-03-01T12:32:20.891Z,5.53
2023-03-01T12:35:31.069Z,3.92
2023-03-01T12:38:21.190Z,5.53
2023-03-01T12:41:19.060Z,3.80
2023-03-01T12:44:02.662Z,5.65
2023-03-01T12:46:57.722Z,6.15
2023-03-01T12:49:37.368Z,4.80
2023-03-01T12:52:26.135Z,4.78
2023-03-01T12:55:00.031Z,5.85
2023-03-01T12:57:38.274Z,3.98
2023-03-01T13:00:16.326Z,4.33
2023-03-01T13:02:55.780Z,5.03
2023-03-01T13:05:35.177Z,5.55
2023-03-01T13:08:25.302Z,4.80
2023-03-01T13:10:59.845Z,5.90
2023-03-01T13:13:31.085Z,4.85
2023-03-01T13:16:23.886Z,3.58
2023-03-01T13:18:57.496Z,3.77
2023-03-01T13:21:33.132Z,3.62
2023-03-01T13:24:04.073Z,4.40
2023-03-01T13:26:37.663Z,4.10
2023-03-01T13:29:12.191Z,4.75
2023-03-01T13:31:45.936Z,4.45
2023-03-01T13:34:55.661Z,5.08
2023-03-01T13:37:30.527Z,2.77
2023-03-01T13:40:05.939Z,3.75
2023-03-01T13:42:40.666Z,5.53
2023-03-01T13:45:37.144Z,5.30
2023-03-01T13:48:19.619Z,7.15
2023-03-01T13:51:05.603Z,5.87
2023-03-01T13:53:40.660Z,4.90
2023-03-01T13:56:23.610Z,5.97
2023-03-01T13:59:06.060Z,3.52
2023-03-01T14:01:38.237Z,3.58
2023-03-01T14:04:25.015Z,5.25
2023-03-01T14:07:13.653Z,3.95
2023-03-01T14:09:47.316Z,3.08
2023-03-01T14:12:30.025Z,3.47
2023-03-01T14:15:22.339Z,4.00
2023-03-01T14:18:16.833Z,4.12
2023-03-01T14:20:49.266Z,4.25
2023-03-01T14:23:25.139Z,3.60
2023-03-01T14:26:00.157Z,4.00
2023-03-01T14:28:35.165Z,7.40
2023-03-01T14:31:26.088Z,4.20
2023-03-01T14:33:57.996Z,3.60
2023-03-01T14:36:31.566Z,3.20
2023-03-01T14:39:04.601Z,5.05
2023-03-01T14:41:37.546Z,4.70
2023-03-01T14:44:11.076Z,3.52
2023-03-01T14:46:44.480Z,5.40
2023-03-01T14:49:31.113Z,4.15
2023-03-01T14:52:04.921Z,3.40
2023-03-01T14:54:43.539Z,3.33
2023-03-01T14:57:22.793Z,4.58
2023-03-01T14:59:59.920Z,6.05
2023-03-01T15:02:34.249Z,4.08
2023-03-01T15:05:09.000Z,2.67
2023-03-01T15:07:42.653Z,3.27
2023-03-01T15:10:23.119Z,5.33
2023-03-01T15:12:54.321Z,7.20
2023-03-01T15:15:33.647Z,5.53
2023-03-01T15:18:07.342Z,5.25
2023-03-01T15:20:37.819Z,3.05
2023-03-01T15:23:11.630Z,3.27
2023-03-01T15:25:45.152Z,3.05
2023-03-01T15:28:18.634Z,4.08
2023-03-01T15:30:52.216Z,6.05
2023-03-01T15:33:29.197Z,3.08
2023-03-01T15:36:02.360Z,2.75
2023-03-01T15:38:55.232Z,3.45
2023-03-01T15:41:34.484Z,3.27
2023-03-01T15:44:07.974Z,2.80
2023-03-01T15:46:39.116Z,3.70
2023-03-01T15:49:30.969Z,3.72
2023-03-01T15:52:01.542Z,7.45
2023-03-01T15:54:32.257Z,6.47
2023-03-01T15:57:03.313Z,3.95
2023-03-01T15:59:33.818Z,4.67
2023-03-01T16:02:05.818Z,3.47
2023-03-01T16:04:36.473Z,4.33
2023-03-01T16:07:07.564Z,4.53
2023-03-01T16:09:38.050Z,4.35
2023-03-01T16:12:10.100Z,7.85
2023-03-01T16:14:40.616Z,6.95
2023-03-01T16:17:11.352Z,5.53
2023-03-01T16:19:42.070Z,7.65
2023-03-01T16:22:13.061Z,6.35
2023-03-01T16:24:43.840Z,5.08
2023-03-01T16:27:16.352Z,4.85
2023-03-01T16:29:48.512Z,5.12
2023-03-01T16:32:18.975Z,6.28
2023-03-01T16:34:50.450Z,6.33
2023-03-01T16:37:22.067Z,5.12
2023-03-01T16:39:54.035Z,6.75
2023-03-01T16:42:24.863Z,8.53
2023-03-01T16:44:58.777Z,7.22
2023-03-01T16:47:30.456Z,7.45
2023-03-01T16:50:01.117Z,11.25
2023-03-01T16:52:31.750Z,6.87
2023-03-01T16:55:04.534Z,12.27
2023-03-01T16:57:40.362Z,7.12
2023-03-01T17:00:15.905Z,6.87
2023-03-01T17:02:46.614Z,7.97
2023-03-01T17:05:18.454Z,6.90
2023-03-01T17:07:48.913Z,8.58
2023-03-01T17:10:20.085Z,7.62
2023-03-01T17:12:51.775Z,6.92
2023-03-01T17:15:22.308Z,7.03
2023-03-01T17:17:52.771Z,7.90
2023-03-01T17:20:23.331Z,7.70
2023-03-01T17:22:53.679Z,7.08
2023-03-01T17:25:24.325Z,7.85
2023-03-01T17:27:56.507Z,10.25
2023-03-01T17:30:28.288Z,12.28
2023-03-01T17:33:00.788Z,9.55
2023-03-01T17:35:32.063Z,9.18
2023-03-01T17:38:02.549Z,13.63
2023-03-01T17:40:37.738Z,16.33
2023-03-01T17:43:09.917Z,16.75
2023-03-01T17:45:41.194Z,15.32
2023-03-01T17:48:11.897Z,16.50
2023-03-01T17:50:43.332Z,16.77
2023-03-01T17:53:14.638Z,19.83
2023-03-01T17:55:46.260Z,15.48
2023-03-01T17:58:20.210Z,17.50
2023-03-01T18:00:51.852Z,19.87
2023-03-01T18:03:22.197Z,20.92
2023-03-01T18:05:54.456Z,13.80
2023-03-01T18:08:26.263Z,14.05
2023-03-01T18:11:01.027Z,14.30
2023-03-01T18:13:31.592Z,17.62
2023-03-01T18:16:04.121Z,19.05
2023-03-01T18:18:35.178Z,17.48
2023-03-01T18:21:08.481Z,15.95
2023-03-01T18:23:40.269Z,19.67
2023-03-01T18:26:15.688Z,18.37
2023-03-01T18:28:48.115Z,18.07
2023-03-01T18:31:22.971Z,16.07
2023-03-01T18:33:55.675Z,17.87
2023-03-01T18:36:29.083Z,16.15
2023-03-01T18:39:00.022Z,22.58
2023-03-01T18:41:32.811Z,16.17
2023-03-01T18:44:05.197Z,15.38
2023-03-01T18:46:38.802Z,14.43
2023-03-01T18:49:12.206Z,13.45
2023-03-01T18:51:44.038Z,11.25
2023-03-01T18:54:14.579Z,14.58
2023-03-01T18:56:45.097Z,14.45
2023-03-01T18:59:18.880Z,15.08
2023-03-01T19:01:49.378Z,18.27
2023-03-01T19:04:19.885Z,15.35
2023-03-01T19:06:50.470Z,19.12
2023-03-01T19:09:22.568Z,27.10
2023-03-01T19:11:53.076Z,20.10
2023-03-01T19:14:28.296Z,22.30
2023-03-01T19:17:00.888Z,21.17
2023-03-01T19:19:31.442Z,19.42
2023-03-01T19:22:08.571Z,21.37
2023-03-01T19:24:34.766Z,20.50
2023-03-01T19:27:05.533Z,16.80
2023-03-01T19:29:37.801Z,17.60
2023-03-01T19:32:09.847Z,16.57
2023-03-01T19:34:41.648Z,16.33
2023-03-01T19:37:12.950Z,17.90
2023-03-01T19:39:44.343Z,16.57
2023-03-01T19:42:14.842Z,18.17
2023-03-01T19:44:45.352Z,16.15
2023-03-01T19:47:15.990Z,18.48
2023-03-01T19:49:46.971Z,19.80
2023-03-01T19:52:19.893Z,18.42
2023-03-01T19:54:53.823Z,20.95
2023-03-01T19:57:24.553Z,21.00
2023-03-01T19:59:55.043Z,18.07
2023-03-01T20:02:27.846Z,20.73
2023-03-01T20:04:58.824Z,20.75
2023-03-01T20:07:29.341Z,22.15
2023-03-01T20:09:59.853Z,18.85
2023-03-01T20:12:31.521Z,26.52
2023-03-01T20:15:02.608Z,18.90
2023-03-01T20:17:33.192Z,21.60
2023-03-01T20:20:05.533Z,25.23
2023-03-01T20:22:38.453Z,25.17
2023-03-01T20:25:11.903Z,24.18
2023-03-01T20:27:44.138Z,24.30
2023-03-01T20:30:16.860Z,20.27
2023-03-01T20:32:48.723Z,21.37
2023-03-01T20:35:21.738Z,24.73
2023-03-01T20:37:55.070Z,22.80
2023-03-01T20:40:27.885Z,24.25
2023-03-01T20:43:00.415Z,22.37
2023-03-01T20:45:31.051Z,22.37
2023-03-01T20:48:01.549Z,18.27
2023-03-01T20:50:33.343Z,18.42
2023-03-01T20:53:04.031Z,23.50
2023-03-01T20:55:34.998Z,22.15
2023-03-01T20:58:07.316Z,21.23
2023-03-01T21:00:38.500Z,40.77
2023-03-01T21:03:09.605Z,34.10
2023-03-01T21:05:42.858Z,116.25
2023-03-01T21:08:16.360Z,52.83
2023-03-01T21:10:53.891Z,43.53
2023-03-01T21:13:33.034Z,41.08
2023-03-01T21:16:06.499Z,35.53
2023-03-01T21:18:37.024Z,28.23
2023-03-01T21:21:12.636Z,26.02
2023-03-01T21:23:44.809Z,26.70
2023-03-01T21:26:27.487Z,24.67
2023-03-01T21:29:02.645Z,23.03
2023-03-01T21:31:36.348Z,24.13
2023-03-01T21:34:15.928Z,24.12
2023-03-01T21:36:47.162Z,29.23
2023-03-01T21:39:18.000Z,19.17
2023-03-01T21:41:52.474Z,21.13
2023-03-01T21:44:23.790Z,25.40
2023-03-01T21:46:55.112Z,25.93
2023-03-01T21:49:26.932Z,21.77
2023-03-01T21:51:57.520Z,25.77
2023-03-01T21:54:28.548Z,23.50
2023-03-01T21:56:59.012Z,25.90
2023-03-01T21:59:29.928Z,24.47
2023-03-01T22:02:00.658Z,22.37
2023-03-01T22:04:31.253Z,25.40
2023-03-01T22:07:04.348Z,25.80
2023-03-01T22:09:36.297Z,22.17
2023-03-01T22:12:08.841Z,21.83
2023-03-01T22:14:41.065Z,20.63
2023-03-01T22:17:12.079Z,20.17
2023-03-01T22:19:42.476Z,22.43
2023-03-01T22:22:25.521Z,23.97
2023-03-01T22:24:56.039Z,22.83
2023-03-01T22:27:27.633Z,26.23
2023-03-01T22:29:58.385Z,36.70
2023-03-01T22:32:29.010Z,29.65
2023-03-01T22:35:00.079Z,33.70
2023-03-01T22:37:30.577Z,25.72
2023-03-01T22:40:01.331Z,31.35
2023-03-01T22:42:32.649Z,25.68
2023-03-01T22:45:06.785Z,25.20
2023-03-01T22:47:39.668Z,24.35
2023-03-01T22:50:12.764Z,23.98
2023-03-01T22:52:43.696Z,27.77
2023-03-01T22:55:14.877Z,31.27
2023-03-01T22:57:45.755Z,26.90
2023-03-01T23:00:17.073Z,28.67
2023-03-01T23:02:47.734Z,24.90
2023-03-01T23:05:18.829Z,25.63
2023-03-01T23:07:49.659Z,25.30
2023-03-01T23:10:22.437Z,23.27
2023-03-01T23:12:57.595Z,23.47
2023-03-01T23:15:28.126Z,32.27
2023-03-01T23:18:00.226Z,26.03
2023-03-01T23:20:30.772Z,23.67
2023-03-01T23:23:01.574Z,26.03
2023-03-01T23:25:33.746Z,23.73
2023-03-01T23:28:04.593Z,26.00
2023-03-01T23:30:35.357Z,24.63
2023-03-01T23:33:05.834Z,21.37
2023-03-01T23:35:39.446Z,24.10
2023-03-01T23:38:10.156Z,27.70
2023-03-01T23:40:42.365Z,28.47
2023-03-01T23:43:12.867Z,28.63
2023-03-01T23:45:43.886Z,28.53
2023-03-01T23:48:15.605Z,31.80
2023-03-01T23:50:47.069Z,32.23
2023-03-01T23:53:22.282Z,35.03
2023-03-01T23:55:56.291Z,32.97
2023-03-01T23:58:30.909Z,34.17
